Time;durP1;ratioP1;P1;durP2;ratioP2;P2;SDS_P1;SDS_P2;PMS_P1;PMS_P2;Temp;Humidity;BMP_temperature;BMP_pressure;BME280_temperature;BME280_humidity;BME280_pressure;Samples;Min_cycle;Max_cycle;Signal;HPM_P1;HPM_P2
2021/01/23 00:00:07;;;;;;;;;;;;;;;10.04;47.85;99469.69;5048544;27;96761;-77
2021/01/23 00:02:32;;;;;;;;;;;;;;;10.17;47.30;99468.97;5047980;27;96405;-78
2021/01/23 00:04:58;;;;;;;;;;;;;;;10.26;47.34;99464.97;5051738;27;99235;-78
2021/01/23 00:07:24;;;;;;;;;;;;;;;10.48;46.90;99460.22;5043226;27;99311;-78
2021/01/23 00:09:50;;;;;;;;;;;;;;;10.63;46.46;99454.06;5043833;27;96985;-77
2021/01/23 00:12:17;;;;;;;;;;;;;;;10.60;46.67;99443.69;5037972;27;96973;-78
2021/01/23 00:14:42;;;;;;;;;;;;;;;10.37;47.50;99444.94;5044507;27;97713;-78
2021/01/23 00:17:08;;;;;;;;;;;;;;;10.55;46.86;99448.38;5041690;27;99183;-79
2021/01/23 00:19:34;;;;;;;;;;;;;;;10.38;47.38;99428.19;5012925;28;96994;-78
2021/01/23 00:22:00;;;;;;;;;;;;;;;9.19;50.11;99432.75;5013137;28;97025;-79
2021/01/23 00:24:26;;;;;;;;;;;;;;;8.53;52.48;99423.81;5012886;27;99117;-78
2021/01/23 00:26:52;;;;;;;;;;;;;;;9.24;50.65;99432.56;5034092;27;98852;-77
2021/01/23 00:29:18;;;;;;;;;;;;;;;9.86;49.39;99439.81;5032107;27;97576;-78
2021/01/23 00:31:44;;;;;;;;;;;;;;;10.07;48.44;99432.56;5033004;28;96909;-78
2021/01/23 00:34:10;;;;;;;;;;;;;;;10.16;48.02;99426.78;5039600;27;100903;-79
2021/01/23 00:36:36;;;;;;;;;;;;;;;10.20;47.71;99423.91;5043601;27;99292;-79
2021/01/23 00:39:03;;;;;;;;;;;;;;;9.83;48.88;99411.84;5033424;27;96872;-77
2021/01/23 00:41:28;;;;;;;;;;;;;;;9.01;50.81;99402.94;5061385;27;96841;-77
2021/01/23 00:43:54;;;;;;;;;;;;;;;9.57;49.83;99386.00;5060087;27;98827;-78
2021/01/23 00:46:21;;;;;;;;;;;;;;;9.00;50.75;99390.69;5049590;27;98704;-79
2021/01/23 00:48:47;;;;;;;;;;;;;;;9.43;50.41;99394.63;5050647;27;96773;-77
2021/01/23 00:51:13;;;;;;;;;;;;;;;9.56;49.89;99393.06;5052925;27;97120;-79
2021/01/23 00:53:39;;;;;;;;;;;;;;;10.06;48.06;99396.53;5058071;27;97215;-79
2021/01/23 00:56:05;;;;;;;;;;;;;;;10.16;47.92;99410.94;5062840;27;98031;-78
2021/01/23 00:58:31;;;;;;;;;;;;;;;10.08;48.05;99414.00;5050322;27;96757;-77
2021/01/23 01:00:57;;;;;;;;;;;;;;;9.90;48.57;99415.00;5048146;27;97610;-79
2021/01/23 01:03:23;;;;;;;;;;;;;;;9.80;49.07;99414.63;5038408;27;99035;-79
2021/01/23 01:05:49;;;;;;;;;;;;;;;9.89;48.96;99421.22;5041316;27;100585;-78
2021/01/23 01:08:15;;;;;;;;;;;;;;;9.80;48.91;99424.31;5042771;27;97253;-79
2021/01/23 01:10:45;;;;;;;;;;;;;;;9.59;49.85;99426.31;5060765;27;97152;-79
2021/01/23 01:13:11;;;;;;;;;;;;;;;9.44;49.98;99424.47;5051496;27;98424;-78
2021/01/23 01:15:37;;;;;;;;;;;;;;;9.51;50.30;99426.72;5034560;27;99267;-79
2021/01/23 01:18:02;;;;;;;;;;;;;;;9.78;49.15;99423.56;5052275;27;96816;-78
2021/01/23 01:20:29;;;;;;;;;;;;;;;9.83;48.82;99414.47;5055683;27;96935;-79
2021/01/23 01:22:55;;;;;;;;;;;;;;;9.67;49.21;99418.84;5052526;27;98239;-79
2021/01/23 01:25:21;;;;;;;;;;;;;;;9.72;49.39;99414.19;5050373;27;99050;-78
2021/01/23 01:27:46;;;;;;;;;;;;;;;9.47;50.01;99416.41;5052131;27;96868;-81
2021/01/23 01:30:13;;;;;;;;;;;;;;;9.46;50.16;99414.69;5052416;27;96943;-81
2021/01/23 01:32:39;;;;;;;;;;;;;;;9.56;49.62;99410.66;5048205;27;96933;-82
2021/01/23 01:35:05;;;;;;;;;;;;;;;9.60;49.30;99412.19;5036773;27;98103;-81
2021/01/23 01:37:32;;;;;;;;;;;;;;;9.57;49.49;99420.28;5045335;27;97180;-81
2021/01/23 01:39:57;;;;;;;;;;;;;;;9.51;49.75;99417.97;5042584;27;96868;-80
2021/01/23 01:42:23;;;;;;;;;;;;;;;9.43;49.74;99426.28;5032676;28;97828;-80
2021/01/23 01:44:50;;;;;;;;;;;;;;;9.60;49.41;99418.31;5032682;28;99073;-81
2021/01/23 01:47:17;;;;;;;;;;;;;;;9.34;49.75;99417.97;5029796;27;97045;-80
2021/01/23 01:49:43;;;;;;;;;;;;;;;9.54;49.57;99413.38;5029284;28;98589;-80
2021/01/23 01:52:08;;;;;;;;;;;;;;;9.62;49.48;99420.88;5026022;28;98846;-80
2021/01/23 01:54:36;;;;;;;;;;;;;;;9.98;48.55;99418.91;5028296;27;99700;-80
2021/01/23 01:57:02;;;;;;;;;;;;;;;9.91;48.37;99406.97;5030654;27;96870;-80
2021/01/23 01:59:28;;;;;;;;;;;;;;;10.30;47.70;99419.00;5032976;28;97218;-81
2021/01/23 02:01:57;;;;;;;;;;;;;;;10.18;48.35;99417.00;5029404;28;99536;-80
2021/01/23 02:04:31;;;;;;;;;;;;;;;9.91;48.76;99409.63;5015942;28;97620;-81
2021/01/23 02:07:10;;;;;;;;;;;;;;;9.86;49.00;99411.66;5014713;28;96798;-80
2021/01/23 02:09:48;;;;;;;;;;;;;;;9.95;48.69;99413.81;5017483;28;97655;-81
2021/01/23 02:12:18;;;;;;;;;;;;;;;10.11;48.12;99405.06;5022607;28;98982;-80
2021/01/23 02:14:48;;;;;;;;;;;;;;;10.18;48.27;99399.38;5031301;28;98075;-81
2021/01/23 02:17:15;;;;;;;;;;;;;;;10.31;47.90;99399.56;5046661;28;96912;-81
2021/01/23 02:19:59;;;;;;;;;;;;;;;10.46;47.57;99408.41;5040853;27;96861;-81
2021/01/23 02:22:32;;;;;;;;;;;;;;;10.11;48.33;99416.47;5053538;28;99839;-80
2021/01/23 02:25:01;;;;;;;;;;;;;;;9.99;48.35;99409.22;5042137;28;98142;-80
2021/01/23 02:27:40;;;;;;;;;;;;;;;10.13;47.97;99411.09;5057991;27;95951;-81
2021/01/23 02:30:11;;;;;;;;;;;;;;;10.15;48.34;99410.09;5048935;27;96519;-81
2021/01/23 02:32:39;;;;;;;;;;;;;;;9.83;49.00;99406.56;5057163;28;97033;-81
2021/01/23 02:35:07;;;;;;;;;;;;;;;9.97;48.35;99401.41;5054806;28;96822;-83
2021/01/23 02:37:33;;;;;;;;;;;;;;;9.97;48.38;99403.19;5056130;28;96654;-82
2021/01/23 02:39:59;;;;;;;;;;;;;;;9.90;49.50;99407.94;5056691;27;96623;-82
2021/01/23 02:42:25;;;;;;;;;;;;;;;9.82;49.31;99404.00;5052910;28;100828;-81
2021/01/23 02:44:51;;;;;;;;;;;;;;;9.80;49.15;99404.06;5028769;27;97847;-81
2021/01/23 02:47:16;;;;;;;;;;;;;;;9.94;48.71;99411.25;5025582;28;96679;-82
2021/01/23 02:49:43;;;;;;;;;;;;;;;9.63;49.39;99400.63;5021125;28;96815;-81
2021/01/23 02:52:14;;;;;;;;;;;;;;;9.53;50.14;99408.16;5037510;28;100667;-81
2021/01/23 02:54:44;;;;;;;;;;;;;;;9.82;49.10;99402.22;5040400;28;98362;-81
2021/01/23 02:57:11;;;;;;;;;;;;;;;9.69;49.71;99390.63;5047183;28;96614;-82
2021/01/23 02:59:38;;;;;;;;;;;;;;;9.82;48.85;99396.09;5047097;28;96768;-81
2021/01/23 03:02:06;;;;;;;;;;;;;;;9.87;48.68;99397.53;5045454;28;98776;-82
2021/01/23 03:04:32;;;;;;;;;;;;;;;10.09;47.90;99389.31;5043693;28;96853;-82
2021/01/23 03:06:59;;;;;;;;;;;;;;;9.86;48.67;99398.47;5044668;28;96831;-82
2021/01/23 03:09:26;;;;;;;;;;;;;;;9.94;48.80;99392.78;5045320;28;97067;-81
2021/01/23 03:11:52;;;;;;;;;;;;;;;10.22;48.43;99386.88;5044681;28;98959;-82
2021/01/23 03:14:18;;;;;;;;;;;;;;;10.40;47.74;99391.13;5025042;28;97872;-82
2021/01/23 03:16:47;;;;;;;;;;;;;;;10.41;46.98;99389.34;5039164;28;96674;-82
2021/01/23 03:19:13;;;;;;;;;;;;;;;10.30;47.54;99397.88;5016013;28;97244;-82
2021/01/23 03:21:39;;;;;;;;;;;;;;;10.22;47.92;99393.03;5029471;28;98973;-82
2021/01/23 03:24:07;;;;;;;;;;;;;;;10.57;47.18;99385.75;5033859;28;98839;-82
2021/01/23 03:26:33;;;;;;;;;;;;;;;10.45;47.65;99386.44;5035184;28;96739;-82
2021/01/23 03:28:59;;;;;;;;;;;;;;;10.24;47.79;99387.66;5033721;27;96801;-82
2021/01/23 03:31:24;;;;;;;;;;;;;;;9.97;47.93;99393.50;5034231;28;101062;-82
2021/01/23 03:33:50;;;;;;;;;;;;;;;10.18;48.26;99395.88;5032697;27;101257;-84
2021/01/23 03:36:16;;;;;;;;;;;;;;;10.16;48.07;99395.97;5033814;28;96859;-81
2021/01/23 03:38:42;;;;;;;;;;;;;;;9.67;48.72;99396.91;5039153;28;97810;-82
2021/01/23 03:41:09;;;;;;;;;;;;;;;9.92;48.41;99390.22;5046505;27;99126;-82
2021/01/23 03:43:34;;;;;;;;;;;;;;;9.97;48.49;99390.84;5055714;27;98141;-82
2021/01/23 03:46:00;;;;;;;;;;;;;;;9.93;48.81;99380.53;5054996;27;96703;-82
2021/01/23 03:48:26;;;;;;;;;;;;;;;10.06;48.19;99388.63;5058193;27;97276;-82
2021/01/23 03:50:52;;;;;;;;;;;;;;;10.10;47.77;99380.47;5054672;27;101154;-82
2021/01/23 03:53:18;;;;;;;;;;;;;;;9.90;48.37;99381.56;5055461;27;98281;-82
2021/01/23 03:55:44;;;;;;;;;;;;;;;10.21;47.50;99382.53;5054441;27;96797;-82
2021/01/23 03:58:10;;;;;;;;;;;;;;;10.16;47.97;99387.19;5054787;27;97078;-82
2021/01/23 04:00:36;;;;;;;;;;;;;;;10.18;47.62;99377.41;5051588;27;100618;-82
2021/01/23 04:03:02;;;;;;;;;;;;;;;10.07;47.99;99380.63;5054340;27;99218;-83
2021/01/23 04:05:28;;;;;;;;;;;;;;;10.22;47.85;99386.88;5053562;27;96796;-82
2021/01/23 04:07:54;;;;;;;;;;;;;;;10.32;47.51;99388.91;5053589;27;98526;-81
2021/01/23 04:10:20;;;;;;;;;;;;;;;10.02;47.66;99379.19;5053557;27;100164;-81
2021/01/23 04:12:46;;;;;;;;;;;;;;;10.29;47.45;99388.25;5052127;27;101093;-82
2021/01/23 04:15:14;;;;;;;;;;;;;;;10.29;47.38;99385.63;5054087;27;96821;-80
2021/01/23 04:17:40;;;;;;;;;;;;;;;10.12;47.40;99389.13;5053758;27;98662;-81
2021/01/23 04:20:07;;;;;;;;;;;;;;;10.19;47.36;99389.69;5053696;27;100861;-81
2021/01/23 04:22:33;;;;;;;;;;;;;;;10.28;47.37;99383.91;5052917;27;97932;-81
2021/01/23 04:24:59;;;;;;;;;;;;;;;10.17;47.30;99387.16;5052312;27;96853;-81
2021/01/23 04:27:25;;;;;;;;;;;;;;;10.16;47.49;99395.13;5052299;27;96906;-81
2021/01/23 04:29:51;;;;;;;;;;;;;;;10.16;47.59;99395.97;5053092;27;98005;-81
2021/01/23 04:32:17;;;;;;;;;;;;;;;10.11;47.64;99391.88;5052383;27;98085;-80
2021/01/23 04:34:43;;;;;;;;;;;;;;;9.87;48.70;99384.34;5054286;27;97392;-81
2021/01/23 04:37:09;;;;;;;;;;;;;;;9.99;48.14;99386.31;5052662;27;96784;-81
2021/01/23 04:39:36;;;;;;;;;;;;;;;9.94;48.13;99375.16;5052629;27;98165;-81
2021/01/23 04:42:04;;;;;;;;;;;;;;;10.25;47.32;99371.72;5055696;27;99263;-82
2021/01/23 04:44:30;;;;;;;;;;;;;;;10.10;47.52;99377.84;5059276;27;96811;-81
2021/01/23 04:46:56;;;;;;;;;;;;;;;9.94;47.91;99380.44;5062646;27;96833;-80
2021/01/23 04:49:23;;;;;;;;;;;;;;;10.11;47.51;99386.59;5059196;27;97862;-81
2021/01/23 04:51:49;;;;;;;;;;;;;;;9.94;48.32;99396.28;5055290;27;99056;-81
2021/01/23 04:54:15;;;;;;;;;;;;;;;9.97;48.04;99388.22;5048537;27;96909;-81
2021/01/23 04:56:41;;;;;;;;;;;;;;;10.10;47.84;99390.16;5062476;27;96967;-81
2021/01/23 04:59:06;;;;;;;;;;;;;;;9.94;48.32;99384.88;5069245;27;97074;-81
2021/01/23 05:01:32;;;;;;;;;;;;;;;9.86;48.32;99387.06;5074409;27;96899;-81
2021/01/23 05:03:59;;;;;;;;;;;;;;;9.74;48.73;99388.59;5074972;27;96075;-82
2021/01/23 05:06:26;;;;;;;;;;;;;;;9.82;48.39;99383.75;5065500;27;96703;-80
2021/01/23 05:08:52;;;;;;;;;;;;;;;9.46;49.50;99385.69;5058608;27;102001;-81
2021/01/23 05:11:18;;;;;;;;;;;;;;;9.48;49.65;99383.84;5058907;27;96892;-81
2021/01/23 05:13:44;;;;;;;;;;;;;;;9.46;49.27;99381.25;5057485;27;96763;-81
2021/01/23 05:16:24;;;;;;;;;;;;;;;9.51;49.25;99379.28;5058256;27;96947;-81
2021/01/23 05:18:54;;;;;;;;;;;;;;;9.86;48.49;99366.81;5061929;27;98271;-81
2021/01/23 05:21:21;;;;;;;;;;;;;;;9.57;49.05;99370.19;5067025;27;99383;-82
2021/01/23 05:24:01;;;;;;;;;;;;;;;9.69;49.11;99372.16;5066442;27;96618;-81
2021/01/23 05:26:27;;;;;;;;;;;;;;;9.97;48.20;99374.16;5053821;27;96905;-82
2021/01/23 05:28:53;;;;;;;;;;;;;;;9.88;48.51;99367.59;5051463;27;101287;-81
2021/01/23 05:31:18;;;;;;;;;;;;;;;9.87;48.43;99363.25;5052615;27;98850;-81
2021/01/23 05:33:44;;;;;;;;;;;;;;;9.62;49.25;99362.00;5052079;27;97695;-80
2021/01/23 05:36:11;;;;;;;;;;;;;;;9.59;49.69;99365.66;5053586;27;96768;-80
2021/01/23 05:38:37;;;;;;;;;;;;;;;9.61;49.43;99361.16;5052010;27;100888;-81
2021/01/23 05:41:13;;;;;;;;;;;;;;;9.82;49.13;99354.72;5052969;27;102039;-82
2021/01/23 05:43:40;;;;;;;;;;;;;;;9.52;49.67;99361.63;5045415;27;96682;-80
2021/01/23 05:46:07;;;;;;;;;;;;;;;9.26;50.26;99355.09;5035293;27;96817;-81
2021/01/23 05:48:34;;;;;;;;;;;;;;;9.42;50.01;99358.66;5027916;27;99266;-81
2021/01/23 05:50:59;;;;;;;;;;;;;;;9.54;49.53;99359.78;5034690;27;101069;-81
2021/01/23 05:53:25;;;;;;;;;;;;;;;9.24;50.75;99362.25;5028768;27;96887;-81
2021/01/23 05:55:51;;;;;;;;;;;;;;;9.16;50.71;99362.63;5025829;27;96618;-81
2021/01/23 05:58:18;;;;;;;;;;;;;;;9.26;50.68;99367.41;5023035;28;96918;-81
2021/01/23 06:00:44;;;;;;;;;;;;;;;9.12;50.83;99362.88;5034501;27;98895;-81
2021/01/23 06:03:11;;;;;;;;;;;;;;;9.23;50.95;99364.97;5047886;27;96756;-81
2021/01/23 06:05:37;;;;;;;;;;;;;;;9.26;50.70;99370.91;5046504;27;98443;-80
2021/01/23 06:08:03;;;;;;;;;;;;;;;9.46;50.07;99364.59;5037394;27;98146;-81
2021/01/23 06:10:36;;;;;;;;;;;;;;;9.46;49.78;99361.97;5037138;27;99671;-81
2021/01/23 06:13:02;;;;;;;;;;;;;;;9.63;49.90;99358.44;5023123;28;96718;-81
2021/01/23 06:15:39;;;;;;;;;;;;;;;9.90;49.08;99367.50;5030667;27;96804;-81
2021/01/23 06:18:06;;;;;;;;;;;;;;;9.71;49.05;99365.03;5030810;27;100445;-80
2021/01/23 06:20:48;;;;;;;;;;;;;;;9.87;48.70;99360.59;5036731;28;98468;-81
2021/01/23 06:23:16;;;;;;;;;;;;;;;9.64;49.49;99354.88;5036673;27;96719;-81
2021/01/23 06:25:56;;;;;;;;;;;;;;;9.79;49.62;99356.66;5033959;27;96872;-81
2021/01/23 06:28:48;;;;;;;;;;;;;;;10.14;48.49;99360.03;5019577;27;98193;-80
2021/01/23 06:31:29;;;;;;;;;;;;;;;9.93;49.06;99362.06;5016559;27;98501;-80
2021/01/23 06:33:55;;;;;;;;;;;;;;;9.80;49.24;99367.16;5020956;27;96907;-81
2021/01/23 06:36:22;;;;;;;;;;;;;;;9.85;49.22;99380.94;5038173;27;96959;-82
2021/01/23 06:38:59;;;;;;;;;;;;;;;9.72;49.08;99384.31;5030014;27;99756;-81
2021/01/23 06:41:28;;;;;;;;;;;;;;;9.77;48.96;99380.50;5015723;28;98917;-79
2021/01/23 06:44:07;;;;;;;;;;;;;;;9.59;49.61;99387.59;5029797;28;96868;-80
2021/01/23 06:46:41;;;;;;;;;;;;;;;9.56;50.04;99389.56;5041322;28;96718;-79
2021/01/23 06:49:10;;;;;;;;;;;;;;;9.73;49.23;99394.78;5044069;28;99429;-82
2021/01/23 06:51:36;;;;;;;;;;;;;;;9.60;49.25;99399.84;5041278;28;99974;-80
2021/01/23 06:54:14;;;;;;;;;;;;;;;9.69;49.53;99403.81;5039972;28;96756;-81
2021/01/23 06:56:41;;;;;;;;;;;;;;;9.73;49.74;99401.84;5038431;28;97246;-80
2021/01/23 06:59:07;;;;;;;;;;;;;;;9.60;49.97;99417.47;5037252;28;100301;-81
2021/01/23 07:01:33;;;;;;;;;;;;;;;9.69;50.04;99410.88;5029261;28;99304;-81
2021/01/23 07:03:59;;;;;;;;;;;;;;;9.58;50.28;99425.44;5039148;28;96808;-81
2021/01/23 07:06:37;;;;;;;;;;;;;;;9.73;49.74;99421.16;5040226;28;96869;-83
2021/01/23 07:09:03;;;;;;;;;;;;;;;9.62;50.24;99433.22;5042401;28;96811;-82
2021/01/23 07:11:29;;;;;;;;;;;;;;;9.62;50.20;99430.56;5043420;27;99278;-82
2021/01/23 07:13:56;;;;;;;;;;;;;;;9.69;50.58;99435.47;5034749;27;96749;-81
2021/01/23 07:16:22;;;;;;;;;;;;;;;9.15;49.28;99425.97;5024819;27;96866;-80
2021/01/23 07:18:51;;;;;;;;;;;;;;;9.59;49.02;99427.16;5040017;28;97870;-82
2021/01/23 07:21:16;;;;;;;;;;;;;;;9.97;49.78;99421.66;5038035;28;99367;-80
2021/01/23 07:23:43;;;;;;;;;;;;;;;10.08;49.94;99421.06;5042124;28;99114;-81
2021/01/23 07:26:11;;;;;;;;;;;;;;;9.73;48.86;99425.59;5039681;28;97072;-80
2021/01/23 07:28:37;;;;;;;;;;;;;;;9.67;50.31;99424.13;5037244;27;97945;-81
2021/01/23 07:31:17;;;;;;;;;;;;;;;9.87;50.04;99421.28;5025613;28;98419;-80
2021/01/23 07:33:43;;;;;;;;;;;;;;;10.26;48.76;99422.72;5042157;28;96687;-80
2021/01/23 07:36:09;;;;;;;;;;;;;;;10.20;49.69;99429.19;5041211;28;98743;-80
2021/01/23 07:38:35;;;;;;;;;;;;;;;9.91;50.07;99419.34;5029245;28;101543;-80
2021/01/23 07:41:02;;;;;;;;;;;;;;;9.01;53.19;99424.00;5045606;27;99398;-79
2021/01/23 07:43:28;;;;;;;;;;;;;;;8.69;53.54;99436.13;5046701;28;96652;-82
2021/01/23 07:45:55;;;;;;;;;;;;;;;8.65;52.99;99436.38;5051873;28;96781;-81
2021/01/23 07:48:21;;;;;;;;;;;;;;;9.14;51.87;99430.38;5052231;28;97162;-82
2021/01/23 07:50:48;;;;;;;;;;;;;;;9.64;51.13;99434.84;5051720;28;98522;-81
2021/01/23 07:53:15;;;;;;;;;;;;;;;9.50;52.12;99434.72;5050315;28;96604;-81
2021/01/23 07:55:40;;;;;;;;;;;;;;;9.59;52.26;99447.41;5046135;28;97015;-82
2021/01/23 07:58:07;;;;;;;;;;;;;;;9.76;51.11;99438.63;5032801;28;97845;-80
2021/01/23 08:00:34;;;;;;;;;;;;;;;9.41;52.82;99443.94;5038927;27;98024;-80
2021/01/23 08:03:00;;;;;;;;;;;;;;;9.84;51.23;99441.72;5024425;27;96917;-80
2021/01/23 08:05:40;;;;;;;;;;;;;;;9.89;50.90;99439.69;5017668;28;96712;-81
2021/01/23 08:08:06;;;;;;;;;;;;;;;9.85;51.44;99441.63;5033730;28;100086;-82
2021/01/23 08:10:35;;;;;;;;;;;;;;;9.63;51.50;99441.06;5036732;28;97801;-82
2021/01/23 08:13:02;;;;;;;;;;;;;;;9.47;52.41;99442.75;5035985;28;96904;-82
2021/01/23 08:15:29;;;;;;;;;;;;;;;9.59;51.78;99442.13;5037776;28;96861;-81
2021/01/23 08:17:56;;;;;;;;;;;;;;;9.47;51.85;99437.50;5032107;28;97283;-81
2021/01/23 08:20:32;;;;;;;;;;;;;;;9.89;51.05;99445.81;5044775;28;99482;-82
2021/01/23 08:23:06;;;;;;;;;;;;;;;9.48;52.20;99441.84;5043193;28;96908;-82
2021/01/23 08:25:34;;;;;;;;;;;;;;;9.05;53.38;99437.91;5040332;28;97002;-82
2021/01/23 08:27:59;;;;;;;;;;;;;;;8.67;54.39;99437.97;5036128;27;100983;-82
2021/01/23 08:30:26;;;;;;;;;;;;;;;8.23;55.84;99432.16;5039025;28;100348;-83
2021/01/23 08:32:53;;;;;;;;;;;;;;;8.06;57.12;99428.63;5039161;28;96780;-81
2021/01/23 08:35:20;;;;;;;;;;;;;;;7.74;57.84;99422.19;5032153;28;96931;-81
2021/01/23 08:37:46;;;;;;;;;;;;;;;7.35;58.98;99417.75;5042416;28;99617;-82
2021/01/23 08:40:12;;;;;;;;;;;;;;;7.26;60.03;99418.16;5042661;28;98115;-82
2021/01/23 08:42:38;;;;;;;;;;;;;;;7.10;60.12;99417.94;5041765;28;96928;-81
2021/01/23 08:45:04;;;;;;;;;;;;;;;6.26;62.45;99417.91;5049343;28;96879;-82
2021/01/23 08:47:30;;;;;;;;;;;;;;;6.50;62.28;99417.88;5050353;28;100877;-82
2021/01/23 08:49:56;;;;;;;;;;;;;;;7.09;60.51;99418.00;5047163;28;97855;-81
2021/01/23 08:52:22;;;;;;;;;;;;;;;7.64;58.48;99411.22;5035669;28;96817;-81
2021/01/23 08:54:51;;;;;;;;;;;;;;;7.24;59.44;99429.66;5043019;28;96865;-81
2021/01/23 08:57:17;;;;;;;;;;;;;;;7.53;58.57;99422.22;5039916;28;100841;-81
2021/01/23 08:59:43;;;;;;;;;;;;;;;7.43;58.77;99420.03;5039286;28;96710;-81
2021/01/23 09:02:10;;;;;;;;;;;;;;;7.75;58.31;99418.63;5038197;28;97035;-80
2021/01/23 09:04:39;;;;;;;;;;;;;;;8.01;57.90;99413.88;5037714;28;97095;-81
2021/01/23 09:07:06;;;;;;;;;;;;;;;8.80;54.79;99423.28;5034872;28;98129;-81
2021/01/23 09:09:31;;;;;;;;;;;;;;;8.73;54.16;99429.78;5033884;28;99238;-81
2021/01/23 09:11:57;;;;;;;;;;;;;;;8.98;54.79;99429.44;5032282;28;96777;-80
2021/01/23 09:14:23;;;;;;;;;;;;;;;8.30;55.56;99411.69;5032794;28;96838;-81
2021/01/23 09:16:49;;;;;;;;;;;;;;;7.29;58.95;99406.66;5034535;28;100928;-81
2021/01/23 09:19:15;;;;;;;;;;;;;;;7.39;59.05;99398.31;5035287;28;98299;-81
2021/01/23 09:21:41;;;;;;;;;;;;;;;7.41;57.93;99400.88;5033030;28;96872;-80
2021/01/23 09:24:08;;;;;;;;;;;;;;;8.13;56.61;99394.06;5034627;28;98657;-82
2021/01/23 09:26:34;;;;;;;;;;;;;;;7.68;57.32;99394.38;5034374;28;101382;-80
2021/01/23 09:29:00;;;;;;;;;;;;;;;7.34;58.22;99384.53;5035068;28;101270;-80
2021/01/23 09:31:26;;;;;;;;;;;;;;;7.52;58.26;99398.63;5034227;28;96741;-80
2021/01/23 09:33:52;;;;;;;;;;;;;;;7.13;59.30;99398.59;5022812;28;96956;-80
2021/01/23 09:36:18;;;;;;;;;;;;;;;7.17;59.28;99392.28;5023827;28;98989;-81
2021/01/23 09:38:44;;;;;;;;;;;;;;;7.08;59.07;99392.69;5030023;28;98952;-80
2021/01/23 09:41:11;;;;;;;;;;;;;;;6.85;60.56;99390.16;5056596;27;96843;-81
2021/01/23 09:43:37;;;;;;;;;;;;;;;6.97;59.78;99394.88;5067394;27;96365;-81
2021/01/23 09:46:03;;;;;;;;;;;;;;;7.12;59.50;99383.75;5058141;27;100761;-82
2021/01/23 09:48:29;;;;;;;;;;;;;;;7.30;58.91;99393.44;5057247;27;98077;-83
2021/01/23 09:50:55;;;;;;;;;;;;;;;6.43;61.00;99392.78;5058227;27;96839;-81
2021/01/23 09:53:21;;;;;;;;;;;;;;;7.06;60.28;99389.25;5054442;27;96837;-80
2021/01/23 09:55:47;;;;;;;;;;;;;;;7.57;58.78;99381.72;5058281;27;96645;-81
2021/01/23 09:58:13;;;;;;;;;;;;;;;7.76;57.24;99387.00;5059993;27;98380;-82
2021/01/23 10:00:39;;;;;;;;;;;;;;;8.29;56.01;99381.88;5063607;27;96857;-82
2021/01/23 10:03:05;;;;;;;;;;;;;;;7.79;57.79;99386.03;5058150;27;96812;-81
2021/01/23 10:05:34;;;;;;;;;;;;;;;8.05;57.13;99385.69;5066128;27;98183;-83
2021/01/23 10:08:00;;;;;;;;;;;;;;;8.33;55.68;99383.50;5061819;27;99806;-81
2021/01/23 10:10:28;;;;;;;;;;;;;;;8.66;55.12;99378.34;5057114;27;97599;-81
2021/01/23 10:12:54;;;;;;;;;;;;;;;8.45;55.42;99373.28;5053770;27;96886;-79
2021/01/23 10:15:21;;;;;;;;;;;;;;;8.63;54.82;99367.97;5049582;27;100956;-82
2021/01/23 10:17:47;;;;;;;;;;;;;;;8.10;56.38;99374.94;5054640;27;101421;-81
2021/01/23 10:20:13;;;;;;;;;;;;;;;8.33;55.73;99367.69;5055323;27;96840;-79
2021/01/23 10:22:39;;;;;;;;;;;;;;;7.46;58.74;99357.72;5053383;27;97863;-81
2021/01/23 10:25:05;;;;;;;;;;;;;;;7.70;58.68;99360.13;5050305;27;101645;-81
2021/01/23 10:27:31;;;;;;;;;;;;;;;7.82;57.35;99360.44;5067987;27;97858;-83
2021/01/23 10:29:57;;;;;;;;;;;;;;;8.17;56.56;99364.03;5077331;27;96682;-81
2021/01/23 10:32:25;;;;;;;;;;;;;;;8.13;56.92;99366.91;5061283;27;96842;-80
2021/01/23 10:34:51;;;;;;;;;;;;;;;7.50;58.13;99361.88;5051449;27;98350;-80
2021/01/23 10:37:16;;;;;;;;;;;;;;;8.26;56.76;99370.66;5054798;27;97105;-79
2021/01/23 10:39:42;;;;;;;;;;;;;;;7.89;57.50;99356.59;5044707;27;96821;-79
2021/01/23 10:42:08;;;;;;;;;;;;;;;8.32;56.24;99360.72;5054619;27;96853;-81
2021/01/23 10:44:39;;;;;;;;;;;;;;;7.93;57.76;99358.16;5065680;27;98249;-82
2021/01/23 10:47:04;;;;;;;;;;;;;;;7.99;57.91;99354.41;5030125;28;99850;-81
2021/01/23 10:49:31;;;;;;;;;;;;;;;8.35;56.17;99364.97;5043877;27;96904;-80
2021/01/23 10:51:57;;;;;;;;;;;;;;;8.38;56.01;99363.06;5055822;27;96800;-80
2021/01/23 10:54:23;;;;;;;;;;;;;;;8.56;55.31;99360.44;5054175;27;99897;-82
2021/01/23 10:56:49;;;;;;;;;;;;;;;8.70;55.46;99358.00;5050414;27;96870;-80
2021/01/23 10:59:15;;;;;;;;;;;;;;;8.08;57.04;99356.56;5044446;28;96860;-81
2021/01/23 11:01:40;;;;;;;;;;;;;;;8.60;56.21;99351.50;5056328;27;96875;-81
2021/01/23 11:04:06;;;;;;;;;;;;;;;8.05;57.30;99346.22;5056001;27;98986;-81
2021/01/23 11:06:33;;;;;;;;;;;;;;;7.65;58.74;99348.97;5058009;27;98931;-81
2021/01/23 11:08:59;;;;;;;;;;;;;;;8.15;57.44;99351.88;5058808;27;96702;-82
2021/01/23 11:11:25;;;;;;;;;;;;;;;8.33;56.76;99344.00;5044257;27;96915;-80
2021/01/23 11:13:51;;;;;;;;;;;;;;;7.44;58.13;99349.03;5055774;27;102420;-81
2021/01/23 11:16:17;;;;;;;;;;;;;;;7.58;58.32;99338.75;5055712;27;101026;-81
2021/01/23 11:18:43;;;;;;;;;;;;;;;8.53;56.82;99342.19;5055011;27;97140;-81
2021/01/23 11:21:09;;;;;;;;;;;;;;;8.66;55.21;99351.19;5058246;27;96737;-80
2021/01/23 11:23:36;;;;;;;;;;;;;;;8.26;56.33;99346.97;5035998;28;97997;-81
2021/01/23 11:26:02;;;;;;;;;;;;;;;8.16;56.84;99343.06;5037976;27;98577;-81
2021/01/23 11:28:28;;;;;;;;;;;;;;;8.16;57.48;99335.16;5058792;27;96909;-83
2021/01/23 11:30:54;;;;;;;;;;;;;;;8.05;57.01;99335.69;5055834;27;96826;-82
2021/01/23 11:33:21;;;;;;;;;;;;;;;8.66;55.84;99327.47;5055925;27;97723;-82
2021/01/23 11:35:47;;;;;;;;;;;;;;;7.70;59.47;99324.19;5058492;27;100332;-81
2021/01/23 11:38:14;;;;;;;;;;;;;;;7.63;58.92;99321.91;5056630;27;96910;-82
2021/01/23 11:40:41;;;;;;;;;;;;;;;7.73;58.87;99310.06;5056947;27;96864;-83
2021/01/23 11:43:07;;;;;;;;;;;;;;;8.46;56.97;99311.81;5042070;27;102088;-81
2021/01/23 11:45:33;;;;;;;;;;;;;;;8.01;58.50;99307.81;5043422;28;99592;-83
2021/01/23 11:47:58;;;;;;;;;;;;;;;8.50;56.60;99300.19;5042687;27;96538;-81
2021/01/23 11:50:24;;;;;;;;;;;;;;;8.40;57.12;99303.28;5036136;28;96676;-82
2021/01/23 11:52:50;;;;;;;;;;;;;;;8.43;57.20;99301.44;5060152;27;96989;-81
2021/01/23 11:55:16;;;;;;;;;;;;;;;7.44;59.22;99291.22;5052754;27;99602;-82
2021/01/23 11:57:43;;;;;;;;;;;;;;;7.25;60.45;99289.47;5050186;27;96971;-83
2021/01/23 12:00:09;;;;;;;;;;;;;;;7.82;58.63;99292.03;5026940;28;96709;-82
2021/01/23 12:02:43;;;;;;;;;;;;;;;8.04;58.35;99296.28;5030467;28;98798;-82
2021/01/23 12:05:09;;;;;;;;;;;;;;;8.49;57.07;99286.19;5050169;27;99922;-82
2021/01/23 12:07:35;;;;;;;;;;;;;;;8.82;56.65;99286.25;5066479;27;96832;-79
2021/01/23 12:10:01;;;;;;;;;;;;;;;9.31;55.24;99286.34;5067040;27;96890;-80
2021/01/23 12:12:26;;;;;;;;;;;;;;;9.50;54.48;99284.41;5041504;27;97786;-83
2021/01/23 12:14:54;;;;;;;;;;;;;;;9.54;54.32;99280.66;5038131;27;98754;-82
2021/01/23 12:17:22;;;;;;;;;;;;;;;9.69;53.68;99269.28;5029510;27;97814;-83
2021/01/23 12:19:48;;;;;;;;;;;;;;;9.85;52.93;99269.28;5028757;27;96927;-81
2021/01/23 12:22:14;;;;;;;;;;;;;;;9.66;53.02;99276.50;5048408;27;98052;-80
2021/01/23 12:24:40;;;;;;;;;;;;;;;9.60;53.64;99275.91;5035909;28;98154;-81
2021/01/23 12:27:07;;;;;;;;;;;;;;;9.66;53.67;99274.72;5024155;27;96998;-82
2021/01/23 12:29:33;;;;;;;;;;;;;;;9.99;52.67;99272.84;5039517;27;96829;-81
2021/01/23 12:32:01;;;;;;;;;;;;;;;9.68;53.18;99272.84;5042690;27;101126;-81
2021/01/23 12:34:27;;;;;;;;;;;;;;;9.40;54.10;99272.66;5038064;27;99832;-81
2021/01/23 12:36:52;;;;;;;;;;;;;;;9.64;53.51;99273.97;5034574;27;96786;-80
2021/01/23 12:39:19;;;;;;;;;;;;;;;9.68;53.39;99279.91;5034683;27;96681;-80
2021/01/23 12:41:46;;;;;;;;;;;;;;;9.87;52.96;99277.97;5030932;27;99133;-79
2021/01/23 12:44:12;;;;;;;;;;;;;;;9.59;53.37;99274.19;5015545;27;100320;-82
2021/01/23 12:46:38;;;;;;;;;;;;;;;9.96;52.49;99283.59;5022563;27;98187;-81
2021/01/23 12:49:04;;;;;;;;;;;;;;;9.59;53.29;99279.47;5019939;28;97469;-81
2021/01/23 12:51:31;;;;;;;;;;;;;;;9.65;53.88;99283.56;5029498;28;102043;-81